createdAt,value
2022-10-22T00:00:41.184Z,85.10
2022-10-22T00:03:08.115Z,84.67
2022-10-22T00:05:35.758Z,84.94
2022-10-22T00:08:02.853Z,84.61
2022-10-22T00:10:29.831Z,85.01
2022-10-22T00:12:57.035Z,85.33
2022-10-22T00:15:24.502Z,85.07
2022-10-22T00:17:51.908Z,85.01
2022-10-22T00:20:18.851Z,84.57
2022-10-22T00:22:45.837Z,84.51
2022-10-22T00:25:12.751Z,85.12
2022-10-22T00:27:39.920Z,84.82
2022-10-22T00:30:09.145Z,84.68
2022-10-22T00:32:36.186Z,84.54
2022-10-22T00:35:03.908Z,84.92
2022-10-22T00:37:31.437Z,84.82
2022-10-22T00:39:58.357Z,84.42
2022-10-22T00:42:27.369Z,84.80
2022-10-22T00:45:04.576Z,84.99
2022-10-22T00:47:39.299Z,84.57
2022-10-22T00:50:13.509Z,84.97
2022-10-22T00:52:40.965Z,84.83
2022-10-22T00:55:09.116Z,84.76
2022-10-22T00:57:36.814Z,85.15
2022-10-22T01:00:06.483Z,84.50
2022-10-22T01:02:34.282Z,84.72
2022-10-22T01:05:01.240Z,84.69
2022-10-22T01:07:28.568Z,84.91
2022-10-22T01:10:22.059Z,84.21
2022-10-22T01:13:01.029Z,84.19
2022-10-22T01:15:56.857Z,84.33
2022-10-22T01:19:08.173Z,84.21
2022-10-22T01:21:46.831Z,84.39
2022-10-22T01:24:36.351Z,84.69
2022-10-22T01:27:26.395Z,84.73
2022-10-22T01:30:07.361Z,84.06
2022-10-22T01:32:45.148Z,84.09
2022-10-22T01:35:17.791Z,84.37
2022-10-22T01:37:53.491Z,84.34
2022-10-22T01:40:23.398Z,84.33
2022-10-22T01:43:02.886Z,83.83
2022-10-22T01:45:38.766Z,84.24
2022-10-22T01:48:24.452Z,84.34
2022-10-22T01:51:31.036Z,84.26
2022-10-22T01:54:34.287Z,84.30
2022-10-22T01:57:31.674Z,84.21
2022-10-22T02:00:08.932Z,84.24
2022-10-22T02:03:22.997Z,84.26
2022-10-22T02:06:01.627Z,84.37
2022-10-22T02:08:33.001Z,83.50
2022-10-22T02:11:01.336Z,83.90
2022-10-22T02:13:36.803Z,84.20
2022-10-22T02:16:08.608Z,84.08
2022-10-22T02:18:40.680Z,83.68
2022-10-22T02:23:40.604Z,83.92
2022-10-22T02:26:20.662Z,83.83
2022-10-22T02:29:07.395Z,83.94
2022-10-22T02:31:39.410Z,83.51
2022-10-22T02:34:11.752Z,83.43
2022-10-22T02:36:40.804Z,83.41
2022-10-22T02:39:09.464Z,83.82
2022-10-22T02:41:38.137Z,83.49
2022-10-22T02:44:10.389Z,83.77
2022-10-22T02:46:39.568Z,83.74
2022-10-22T02:49:06.917Z,84.04
2022-10-22T02:51:34.519Z,83.58
2022-10-22T02:54:01.950Z,83.81
2022-10-22T02:56:28.970Z,83.93
2022-10-22T02:58:56.161Z,83.88
2022-10-22T03:01:23.580Z,83.82
2022-10-22T03:03:50.691Z,84.15
2022-10-22T03:06:18.134Z,83.43
2022-10-22T03:08:45.127Z,84.40
2022-10-22T03:11:12.029Z,84.23
2022-10-22T03:13:38.899Z,84.28
2022-10-22T03:16:06.370Z,84.46
2022-10-22T03:18:33.379Z,83.94
2022-10-22T03:21:28.760Z,84.29
2022-10-22T03:23:56.005Z,83.95
2022-10-22T03:26:23.966Z,84.85
2022-10-22T03:28:51.665Z,84.24
2022-10-22T03:31:19.039Z,84.37
2022-10-22T03:33:46.153Z,84.64
2022-10-22T03:36:13.219Z,84.78
2022-10-22T03:38:41.126Z,84.45
2022-10-22T03:41:08.342Z,84.66
2022-10-22T03:43:36.831Z,84.18
2022-10-22T03:46:05.439Z,84.21
2022-10-22T03:48:32.631Z,84.10
2022-10-22T03:50:59.574Z,84.60
2022-10-22T03:53:26.481Z,84.00
2022-10-22T03:55:53.334Z,84.40
2022-10-22T03:58:20.169Z,84.15
2022-10-22T04:00:47.292Z,84.34
2022-10-22T04:03:14.405Z,84.26
2022-10-22T04:05:41.605Z,83.97
2022-10-22T04:08:08.696Z,84.38
2022-10-22T04:10:35.897Z,84.14
2022-10-22T04:13:02.810Z,84.47
2022-10-22T04:15:29.788Z,84.27
2022-10-22T04:17:56.765Z,83.71
2022-10-22T04:20:23.671Z,84.23
2022-10-22T04:22:50.591Z,84.98
2022-10-22T04:25:17.702Z,84.31
2022-10-22T04:27:44.567Z,84.54
2022-10-22T04:30:12.347Z,84.33
2022-10-22T04:32:39.211Z,84.75
2022-10-22T04:35:06.963Z,84.98
2022-10-22T04:37:34.153Z,84.56
2022-10-22T04:40:01.205Z,84.84
2022-10-22T04:42:28.189Z,84.34
2022-10-22T04:44:55.093Z,85.00
2022-10-22T04:47:22.070Z,84.54
2022-10-22T04:49:48.938Z,84.66
2022-10-22T04:52:15.905Z,84.78
2022-10-22T04:54:42.896Z,84.60
2022-10-22T04:57:09.820Z,84.44
2022-10-22T04:59:37.211Z,84.64
2022-10-22T05:02:04.461Z,85.12
2022-10-22T05:04:32.016Z,85.02
2022-10-22T05:06:58.948Z,84.80
2022-10-22T05:09:26.015Z,85.49
2022-10-22T05:11:53.571Z,85.05
2022-10-22T05:14:24.239Z,85.47
2022-10-22T05:16:52.529Z,85.26
2022-10-22T05:19:29.867Z,84.77
2022-10-22T05:22:00.366Z,85.46
2022-10-22T05:24:29.283Z,85.79
2022-10-22T05:26:58.509Z,85.74
2022-10-22T05:29:26.586Z,85.90
2022-10-22T05:31:54.244Z,85.18
2022-10-22T05:34:21.550Z,85.76
2022-10-22T05:36:48.601Z,85.46
2022-10-22T05:39:16.061Z,85.63
2022-10-22T05:41:43.256Z,85.78
2022-10-22T05:44:12.970Z,85.51
2022-10-22T05:46:40.677Z,85.42
2022-10-22T05:49:08.137Z,86.20
2022-10-22T05:51:37.268Z,85.81
2022-10-22T05:54:07.740Z,85.90
2022-10-22T05:56:35.563Z,85.89
2022-10-22T06:01:35.472Z,86.05
2022-10-22T06:04:07.626Z,86.09
2022-10-22T06:06:53.625Z,86.76
2022-10-22T06:09:26.486Z,85.95
2022-10-22T06:11:54.103Z,86.77
2022-10-22T06:14:21.914Z,87.31
2022-10-22T06:16:49.595Z,87.10
2022-10-22T06:19:20.393Z,87.54
2022-10-22T06:21:48.446Z,87.49
2022-10-22T06:24:16.173Z,87.05
2022-10-22T06:26:43.881Z,87.25
2022-10-22T06:29:11.543Z,87.42
2022-10-22T06:31:38.568Z,87.85
2022-10-22T06:34:12.183Z,87.50
2022-10-22T06:39:16.188Z,87.52
2022-10-22T06:41:43.667Z,87.25
2022-10-22T06:44:16.340Z,86.89
2022-10-22T06:46:44.070Z,87.23
2022-10-22T06:49:15.686Z,87.49
2022-10-22T06:51:42.825Z,87.54
2022-10-22T06:54:10.651Z,87.37
2022-10-22T06:56:38.082Z,87.24
2022-10-22T06:59:05.394Z,87.24
2022-10-22T07:01:36.129Z,87.51
2022-10-22T07:04:05.875Z,87.35
2022-10-22T07:06:33.058Z,87.50
2022-10-22T07:09:04.206Z,87.36
2022-10-22T07:11:40.612Z,87.17
2022-10-22T07:14:07.830Z,87.34
2022-10-22T07:16:34.769Z,87.25
2022-10-22T07:19:03.820Z,87.68
2022-10-22T07:21:32.145Z,87.48
2022-10-22T07:24:00.361Z,87.79
2022-10-22T07:26:30.935Z,87.75
2022-10-22T07:29:00.679Z,87.95
2022-10-22T07:31:28.453Z,87.67
2022-10-22T07:33:55.604Z,87.74
2022-10-22T07:36:22.682Z,87.47
2022-10-22T07:38:56.522Z,87.33
2022-10-22T07:41:23.934Z,87.38
2022-10-22T07:43:51.615Z,87.86
2022-10-22T07:46:20.506Z,87.45
2022-10-22T07:48:47.841Z,87.67
2022-10-22T07:51:15.823Z,87.63
2022-10-22T07:53:43.548Z,87.44
2022-10-22T07:56:10.996Z,87.43
2022-10-22T07:58:38.308Z,86.89
2022-10-22T08:01:05.965Z,87.52
2022-10-22T08:03:33.854Z,87.19
2022-10-22T08:06:01.752Z,87.43
2022-10-22T08:08:30.934Z,87.14
2022-10-22T08:11:01.601Z,86.98
2022-10-22T08:13:30.752Z,87.07
2022-10-22T08:16:00.334Z,87.11
2022-10-22T08:18:28.294Z,86.83
2022-10-22T08:20:55.574Z,86.69
2022-10-22T08:23:26.002Z,86.43
2022-10-22T08:25:54.809Z,86.29
2022-10-22T08:28:23.030Z,86.05
2022-10-22T08:30:50.152Z,86.17
2022-10-22T08:33:17.099Z,86.02
2022-10-22T08:35:51.820Z,86.21
2022-10-22T08:38:19.795Z,85.66
2022-10-22T08:40:54.799Z,85.68
2022-10-22T08:43:50.136Z,85.69
2022-10-22T08:46:53.055Z,84.71
2022-10-22T08:49:25.396Z,84.53
2022-10-22T08:51:52.645Z,85.04
2022-10-22T08:54:42.017Z,84.43
2022-10-22T08:57:09.195Z,84.59
2022-10-22T09:00:05.376Z,83.83
2022-10-22T09:02:59.970Z,84.02
2022-10-22T09:08:24.611Z,83.78
2022-10-22T09:11:01.595Z,83.32
2022-10-22T09:13:29.919Z,83.29
2022-10-22T09:16:01.915Z,82.59
2022-10-22T09:19:10.270Z,82.99
2022-10-22T09:22:10.071Z,83.17
2022-10-22T09:24:43.681Z,82.56
2022-10-22T09:27:29.138Z,82.20
2022-10-22T09:29:56.894Z,82.74
2022-10-22T09:32:24.088Z,82.13
2022-10-22T09:34:57.035Z,82.09
2022-10-22T09:37:30.033Z,81.44
2022-10-22T09:39:59.206Z,81.48
2022-10-22T09:42:26.675Z,81.29
2022-10-22T09:44:59.740Z,80.93
2022-10-22T09:48:02.150Z,80.99
2022-10-22T09:50:39.650Z,80.99
2022-10-22T09:53:43.952Z,80.20
2022-10-22T09:56:36.475Z,79.52
2022-10-22T09:59:04.250Z,80.17
2022-10-22T10:01:38.627Z,79.90
2022-10-22T10:04:10.064Z,79.98
2022-10-22T10:06:41.134Z,80.20
2022-10-22T10:09:25.398Z,79.77
2022-10-22T10:12:06.221Z,79.61
2022-10-22T10:14:38.896Z,79.80
2022-10-22T10:17:28.183Z,79.48
2022-10-22T10:20:10.753Z,79.03
2022-10-22T10:23:20.641Z,79.37
2022-10-22T10:26:07.947Z,77.91
2022-10-22T10:29:13.235Z,77.77
2022-10-22T10:32:10.203Z,77.67
2022-10-22T10:34:53.672Z,77.30
2022-10-22T10:37:38.751Z,77.50
2022-10-22T10:40:13.174Z,76.99
2022-10-22T10:42:58.698Z,77.06
2022-10-22T10:45:36.194Z,76.97
2022-10-22T10:48:33.089Z,76.82
2022-10-22T10:51:50.576Z,76.51
2022-10-22T10:54:28.047Z,76.44
2022-10-22T10:57:02.812Z,76.13
2022-10-22T10:59:47.638Z,76.19
2022-10-22T11:02:34.973Z,76.05
2022-10-22T11:05:28.235Z,75.72
2022-10-22T11:08:03.043Z,75.37
2022-10-22T11:10:42.483Z,75.36
2022-10-22T11:13:33.000Z,75.62
2022-10-22T11:16:14.603Z,75.51
2022-10-22T11:18:45.091Z,75.17
2022-10-22T11:21:30.500Z,75.10
2022-10-22T11:24:12.302Z,74.51
2022-10-22T11:26:49.080Z,74.57
2022-10-22T11:29:27.297Z,74.48
2022-10-22T11:31:57.712Z,74.54
2022-10-22T11:34:40.902Z,73.95
2022-10-22T11:37:11.148Z,73.42
2022-10-22T11:39:45.845Z,73.78
2022-10-22T11:42:21.655Z,73.80
2022-10-22T11:45:07.245Z,73.95
2022-10-22T11:47:53.785Z,73.98
2022-10-22T11:50:25.193Z,74.21
2022-10-22T11:53:02.914Z,73.72
2022-10-22T11:55:48.746Z,73.30
2022-10-22T11:58:35.703Z,73.33
2022-10-22T12:01:02.625Z,73.49
2022-10-22T12:03:35.438Z,73.66
2022-10-22T12:06:12.258Z,73.36
2022-10-22T12:08:46.143Z,73.37
2022-10-22T12:11:20.702Z,73.44
2022-10-22T12:14:26.636Z,73.31
2022-10-22T12:16:58.289Z,73.26
2022-10-22T12:19:36.163Z,73.24
2022-10-22T12:22:27.043Z,72.79
2022-10-22T12:25:00.961Z,72.93
2022-10-22T12:27:39.092Z,73.18
2022-10-22T12:30:29.156Z,73.60
2022-10-22T12:33:01.637Z,73.78
2022-10-22T12:35:43.009Z,73.85
2022-10-22T12:38:17.476Z,73.99
2022-10-22T12:40:47.671Z,73.44
2022-10-22T12:43:20.594Z,73.67
2022-10-22T12:45:49.850Z,73.96
2022-10-22T12:48:41.191Z,73.88
2022-10-22T12:51:11.773Z,73.62
2022-10-22T12:53:55.570Z,73.93
2022-10-22T12:56:27.927Z,73.83
2022-10-22T12:59:26.421Z,73.72
2022-10-22T13:01:54.926Z,73.84
2022-10-22T13:04:37.712Z,73.98
2022-10-22T13:07:25.939Z,73.90
2022-10-22T13:09:57.525Z,74.11
2022-10-22T13:12:28.094Z,73.53
2022-10-22T13:14:55.102Z,73.63
2022-10-22T13:17:41.439Z,73.42
2022-10-22T13:20:23.547Z,72.93
2022-10-22T13:23:03.395Z,73.29
2022-10-22T13:25:38.689Z,73.54
2022-10-22T13:28:21.155Z,73.38
2022-10-22T13:31:02.753Z,72.70
2022-10-22T13:33:38.440Z,72.34
2022-10-22T13:36:06.646Z,72.25
2022-10-22T13:38:33.715Z,72.08
2022-10-22T13:41:03.182Z,72.19
2022-10-22T13:43:30.226Z,72.88
2022-10-22T13:46:01.220Z,73.34
2022-10-22T13:48:30.673Z,72.93
2022-10-22T13:50:57.700Z,72.40
2022-10-22T13:53:28.962Z,72.58
2022-10-22T13:55:56.331Z,72.32
2022-10-22T13:58:25.117Z,72.10
2022-10-22T14:00:57.032Z,72.04
2022-10-22T14:03:32.629Z,72.15
2022-10-22T14:06:01.064Z,72.38
2022-10-22T14:08:28.939Z,72.20
2022-10-22T14:10:56.195Z,72.34
2022-10-22T14:13:23.856Z,72.29
2022-10-22T14:15:52.508Z,72.31
2022-10-22T14:18:28.654Z,71.83
2022-10-22T14:20:58.631Z,71.42
2022-10-22T14:23:30.174Z,71.61
2022-10-22T14:25:59.156Z,72.11
2022-10-22T14:28:26.162Z,72.12
2022-10-22T14:30:54.414Z,73.02
2022-10-22T14:33:32.109Z,73.35
2022-10-22T14:36:00.851Z,73.92
2022-10-22T14:38:28.574Z,74.08
2022-10-22T14:40:56.037Z,74.32
2022-10-22T14:43:28.543Z,74.30
2022-10-22T14:45:56.378Z,74.39
2022-10-22T14:48:24.502Z,74.15
2022-10-22T14:50:52.091Z,74.86
2022-10-22T14:53:19.926Z,74.09
2022-10-22T14:55:49.104Z,73.93
2022-10-22T14:58:16.595Z,73.42
2022-10-22T15:00:44.231Z,74.08
2022-10-22T15:03:11.987Z,74.08
2022-10-22T15:05:44.785Z,73.48
2022-10-22T15:08:14.559Z,74.59
2022-10-22T15:10:41.859Z,74.53
2022-10-22T15:13:09.841Z,74.86
2022-10-22T15:15:41.241Z,75.21
2022-10-22T15:18:08.801Z,75.31
2022-10-22T15:20:36.858Z,75.27
2022-10-22T15:23:04.102Z,75.29
2022-10-22T15:25:31.300Z,75.17
2022-10-22T15:28:01.845Z,75.05
2022-10-22T15:30:34.563Z,74.93
2022-10-22T15:33:02.074Z,75.41
2022-10-22T15:35:29.040Z,75.52
2022-10-22T15:37:56.072Z,75.70
2022-10-22T15:40:25.956Z,75.57
2022-10-22T15:42:53.350Z,75.81
2022-10-22T15:45:22.651Z,76.10
2022-10-22T15:47:50.452Z,76.13
2022-10-22T15:52:45.123Z,76.41
2022-10-22T15:57:41.164Z,76.70
2022-10-22T16:00:10.004Z,77.24
2022-10-22T16:02:39.901Z,76.69
2022-10-22T16:05:09.192Z,77.26
2022-10-22T16:07:36.856Z,77.27
2022-10-22T16:10:04.715Z,77.42
2022-10-22T16:12:32.067Z,77.81
2022-10-22T16:14:59.313Z,77.66
2022-10-22T16:17:26.332Z,77.90
2022-10-22T16:19:53.557Z,77.20
2022-10-22T16:22:20.554Z,77.65
2022-10-22T16:24:47.462Z,78.09
2022-10-22T16:27:14.479Z,78.24
2022-10-22T16:29:42.006Z,78.08
2022-10-22T16:32:08.992Z,78.22
2022-10-22T16:34:35.963Z,78.33
2022-10-22T16:37:03.197Z,78.73
2022-10-22T16:39:30.644Z,78.60
2022-10-22T16:41:57.849Z,78.52
2022-10-22T16:44:25.271Z,78.58
2022-10-22T16:46:52.658Z,79.02
2022-10-22T16:49:19.973Z,78.86
2022-10-22T16:51:47.015Z,79.05
2022-10-22T16:54:15.689Z,78.76
2022-10-22T16:56:42.714Z,78.57
2022-10-22T16:59:09.952Z,79.06
2022-10-22T17:01:40.974Z,78.98
2022-10-22T17:04:09.407Z,78.85
2022-10-22T17:06:36.770Z,79.07
2022-10-22T17:09:04.915Z,79.12
2022-10-22T17:11:36.418Z,78.96
2022-10-22T17:14:05.319Z,79.23
2022-10-22T17:16:32.413Z,79.06
2022-10-22T17:18:59.390Z,78.96
2022-10-22T17:21:26.361Z,78.80
2022-10-22T17:23:58.027Z,79.31
2022-10-22T17:26:26.979Z,79.23
2022-10-22T17:28:54.869Z,79.30
2022-10-22T17:31:25.150Z,79.34
2022-10-22T17:33:54.932Z,79.41
2022-10-22T17:36:24.101Z,79.24
2022-10-22T17:38:57.304Z,79.61
2022-10-22T17:41:32.108Z,79.04
2022-10-22T17:44:02.290Z,79.78
2022-10-22T17:46:31.131Z,79.08
2022-10-22T17:49:02.207Z,79.57
2022-10-22T17:51:31.469Z,79.27
2022-10-22T17:53:58.686Z,79.63
2022-10-22T17:56:29.878Z,79.72
2022-10-22T17:58:59.675Z,79.63
2022-10-22T18:01:31.416Z,79.66
2022-10-22T18:04:06.336Z,79.45
2022-10-22T18:06:34.786Z,80.19
2022-10-22T18:09:05.812Z,80.26
2022-10-22T18:11:34.410Z,80.17
2022-10-22T18:14:01.455Z,80.08
2022-10-22T18:16:28.715Z,80.97
2022-10-22T18:18:57.485Z,80.68
2022-10-22T18:21:27.359Z,80.31
2022-10-22T18:23:55.285Z,80.53
2022-10-22T18:26:25.945Z,80.44
2022-10-22T18:28:54.717Z,80.49
2022-10-22T18:31:27.972Z,81.12
2022-10-22T18:33:55.673Z,80.54
2022-10-22T18:36:26.789Z,80.49
2022-10-22T18:38:57.394Z,80.92
2022-10-22T18:41:25.280Z,81.15
2022-10-22T18:43:54.719Z,80.76
2022-10-22T18:46:24.015Z,80.66
2022-10-22T18:48:56.155Z,81.61
2022-10-22T18:51:26.166Z,81.11
2022-10-22T18:54:05.895Z,80.87
2022-10-22T18:56:40.708Z,80.89
2022-10-22T18:59:20.800Z,81.21
2022-10-22T19:01:48.093Z,81.17
2022-10-22T19:04:15.523Z,80.95
2022-10-22T19:06:45.244Z,80.54
2022-10-22T19:09:15.287Z,80.61
2022-10-22T19:11:45.056Z,81.04
2022-10-22T19:14:14.964Z,80.55
2022-10-22T19:16:42.470Z,80.55
2022-10-22T19:19:09.530Z,80.71
2022-10-22T19:21:38.387Z,80.66
2022-10-22T19:24:06.124Z,80.54
2022-10-22T19:26:33.099Z,80.63
2022-10-22T19:29:00.575Z,80.19
2022-10-22T19:31:32.437Z,80.41
2022-10-22T19:34:01.537Z,80.83
2022-10-22T19:36:30.826Z,80.96
2022-10-22T19:38:59.301Z,81.02
2022-10-22T19:41:29.136Z,81.29
2022-10-22T19:43:58.007Z,81.33
2022-10-22T19:46:29.243Z,80.71
2022-10-22T19:48:57.370Z,80.41
2022-10-22T19:51:29.896Z,80.65
2022-10-22T19:54:18.618Z,80.32
2022-10-22T19:56:46.779Z,80.99
2022-10-22T19:59:15.860Z,80.09
2022-10-22T20:01:43.361Z,80.39
2022-10-22T20:04:16.289Z,80.49
2022-10-22T20:06:48.278Z,80.64
2022-10-22T20:09:16.105Z,80.38
2022-10-22T20:11:44.263Z,80.54
2022-10-22T20:14:12.038Z,80.59
2022-10-22T20:16:39.470Z,80.84
2022-10-22T20:19:08.644Z,80.45
2022-10-22T20:21:35.583Z,80.52
2022-10-22T20:24:02.590Z,80.49
2022-10-22T20:26:31.518Z,80.37
2022-10-22T20:28:59.027Z,80.01
2022-10-22T20:31:29.344Z,80.36
2022-10-22T20:33:59.602Z,79.81
2022-10-22T20:36:28.703Z,80.32
2022-10-22T20:39:02.423Z,80.09
2022-10-22T20:41:29.841Z,79.94
2022-10-22T20:43:57.165Z,79.88
2022-10-22T20:46:30.854Z,79.69
2022-10-22T20:49:24.473Z,80.19
2022-10-22T20:51:51.555Z,79.66
2022-10-22T20:54:20.121Z,79.58
2022-10-22T20:56:47.996Z,79.98
2022-10-22T20:59:15.875Z,79.63
2022-10-22T21:01:48.095Z,79.88
2022-10-22T21:04:17.604Z,80.49
2022-10-22T21:06:45.368Z,79.57
2022-10-22T21:09:14.559Z,80.06
2022-10-22T21:11:44.674Z,80.22
2022-10-22T21:14:14.818Z,79.71
2022-10-22T21:16:50.023Z,79.60
2022-10-22T21:19:19.181Z,79.38
2022-10-22T21:21:46.067Z,79.64
2022-10-22T21:24:13.069Z,79.48
2022-10-22T21:26:42.758Z,79.02
2022-10-22T21:29:12.543Z,79.23
2022-10-22T21:31:40.603Z,79.53
2022-10-22T21:34:07.839Z,79.07
2022-10-22T21:36:35.059Z,79.22
2022-10-22T21:39:02.752Z,79.35
2022-10-22T21:41:29.844Z,79.18
2022-10-22T21:43:56.992Z,79.75
2022-10-22T21:46:27.430Z,79.24
2022-10-22T21:49:03.388Z,78.82
2022-10-22T21:51:33.968Z,79.04
2022-10-22T21:54:01.233Z,79.34
2022-10-22T21:56:34.745Z,78.94
2022-10-22T21:59:04.430Z,78.91
2022-10-22T22:01:31.639Z,79.08
2022-10-22T22:03:58.999Z,79.10
2022-10-22T22:06:30.854Z,78.58
2022-10-22T22:09:00.320Z,79.04
2022-10-22T22:11:29.041Z,79.11
2022-10-22T22:13:58.089Z,78.68
2022-10-22T22:16:32.531Z,78.77
2022-10-22T22:21:41.833Z,78.70
2022-10-22T22:24:11.891Z,79.31
2022-10-22T22:26:39.588Z,79.09
2022-10-22T22:29:06.670Z,78.44
2022-10-22T22:31:37.326Z,78.85
2022-10-22T22:34:08.829Z,78.73
2022-10-22T22:36:39.776Z,78.45
2022-10-22T22:39:11.096Z,79.07
2022-10-22T22:41:38.134Z,79.07
2022-10-22T22:44:05.394Z,79.31
2022-10-22T22:46:32.642Z,79.46
2022-10-22T22:48:59.638Z,80.21
2022-10-22T22:51:26.876Z,79.36
2022-10-22T22:53:53.887Z,79.60
2022-10-22T22:56:28.004Z,79.23
2022-10-22T22:58:55.855Z,80.29
2022-10-22T23:01:38.631Z,79.66
2022-10-22T23:04:25.292Z,79.36
2022-10-22T23:06:52.481Z,79.63
2022-10-22T23:11:53.454Z,80.14
2022-10-22T23:14:20.554Z,79.78
2022-10-22T23:16:51.159Z,79.99
2022-10-22T23:19:21.612Z,79.51
2022-10-22T23:21:54.891Z,79.93
2022-10-22T23:24:25.966Z,79.96
2022-10-22T23:26:54.949Z,79.57
2022-10-22T23:29:26.721Z,79.79
2022-10-22T23:31:55.730Z,79.49
2022-10-22T23:34:25.154Z,79.93
2022-10-22T23:36:53.174Z,79.43
2022-10-22T23:39:26.527Z,79.94
2022-10-22T23:41:54.377Z,79.90
2022-10-22T23:44:22.760Z,79.81
2022-10-22T23:46:50.837Z,80.02
2022-10-22T23:49:18.580Z,79.98
2022-10-22T23:51:45.604Z,80.32
2022-10-22T23:54:16.298Z,80.48
2022-10-22T23:56:43.664Z,80.68
2022-10-22T23:59:11.537Z,80.65
